createdAt,value
2019-06-15T00:00:49.361Z,98.57
2019-06-15T00:01:49.341Z,98.61
2019-06-15T00:02:49.324Z,98.21
2019-06-15T00:03:49.317Z,98.01
2019-06-15T00:04:49.303Z,98.11
2019-06-15T00:05:49.287Z,98.61
2019-06-15T00:06:49.298Z,98.92
2019-06-15T00:07:49.266Z,98.51
2019-06-15T00:08:49.253Z,98.61
2019-06-15T00:09:49.243Z,98.21
2019-06-15T00:10:49.230Z,98.51
2019-06-15T00:11:49.221Z,98.61
2019-06-15T00:12:49.238Z,98.71
2019-06-15T00:13:49.201Z,98.97
2019-06-15T00:14:49.185Z,98.97
2019-06-15T00:15:49.171Z,98.47
2019-06-15T00:16:49.162Z,98.67
2019-06-15T00:17:49.146Z,98.47
2019-06-15T00:18:49.149Z,98.57
2019-06-15T00:19:49.128Z,98.71
2019-06-15T00:20:49.113Z,98.71
2019-06-15T00:21:49.099Z,98.82
2019-06-15T00:22:49.092Z,98.61
2019-06-15T00:23:49.079Z,98.51
2019-06-15T00:24:49.090Z,98.11
2019-06-15T00:25:49.064Z,98.11
2019-06-15T00:26:49.040Z,98.21
2019-06-15T00:27:49.036Z,98.21
2019-06-15T00:28:49.017Z,97.91
2019-06-15T00:29:49.004Z,97.60
2019-06-15T00:30:49.018Z,97.91
2019-06-15T00:31:48.979Z,97.71
2019-06-15T00:32:48.968Z,98.11
2019-06-15T00:33:48.959Z,98.51
2019-06-15T00:34:48.946Z,98.31
2019-06-15T00:35:48.935Z,97.71
2019-06-15T00:36:48.944Z,98.11
2019-06-15T00:37:48.911Z,98.01
2019-06-15T00:38:48.895Z,98.11
2019-06-15T00:39:48.888Z,98.71
2019-06-15T00:40:48.872Z,98.82
2019-06-15T00:41:48.864Z,98.41
2019-06-15T00:42:48.876Z,98.67
2019-06-15T00:43:48.836Z,98.51
2019-06-15T00:44:48.834Z,98.71
2019-06-15T00:45:48.826Z,98.11
2019-06-15T00:46:48.806Z,98.71
2019-06-15T00:47:48.792Z,98.71
2019-06-15T00:48:48.796Z,98.71
2019-06-15T00:49:48.767Z,98.92
2019-06-15T00:50:48.755Z,98.61
2019-06-15T00:51:48.752Z,98.82
2019-06-15T00:52:48.737Z,98.21
2019-06-15T00:53:48.718Z,98.76
2019-06-15T00:54:50.610Z,98.96
2019-06-15T00:55:48.694Z,98.56
2019-06-15T00:56:48.681Z,98.56
2019-06-15T00:57:48.675Z,98.41
2019-06-15T00:58:48.661Z,98.56
2019-06-15T00:59:48.659Z,98.61
2019-06-15T01:00:48.668Z,98.66
2019-06-15T01:01:48.623Z,98.66
2019-06-15T01:02:48.615Z,98.51
2019-06-15T01:03:48.610Z,98.56
2019-06-15T01:04:48.587Z,98.56
2019-06-15T01:05:48.578Z,98.31
2019-06-15T01:06:48.590Z,98.56
2019-06-15T01:07:48.551Z,98.56
2019-06-15T01:08:48.548Z,98.56
2019-06-15T01:09:48.529Z,99.07
2019-06-15T01:10:48.517Z,99.16
2019-06-15T01:11:48.504Z,98.96
2019-06-15T01:12:48.516Z,99.16
2019-06-15T01:13:48.485Z,99.57
2019-06-15T01:14:48.469Z,99.47
2019-06-15T01:15:48.457Z,99.47
2019-06-15T01:16:48.446Z,99.47
2019-06-15T01:17:48.439Z,99.47
2019-06-15T01:18:48.453Z,99.47
2019-06-15T01:19:48.408Z,99.47
2019-06-15T01:20:48.405Z,99.42
2019-06-15T01:21:48.402Z,99.16
2019-06-15T01:22:48.375Z,99.37
2019-06-15T01:23:48.368Z,99.57
2019-06-15T01:24:48.372Z,99.77
2019-06-15T01:25:48.348Z,99.57
2019-06-15T01:26:48.335Z,98.86
2019-06-15T01:27:48.315Z,98.76
2019-06-15T01:28:48.305Z,99.07
2019-06-15T01:29:48.292Z,99.07
2019-06-15T01:30:48.305Z,98.86
2019-06-15T01:31:48.277Z,99.16
2019-06-15T01:32:48.256Z,99.01
2019-06-15T01:33:48.248Z,99.07
2019-06-15T01:34:48.237Z,99.07
2019-06-15T01:35:48.222Z,99.11
2019-06-15T01:36:48.235Z,99.77
2019-06-15T01:37:48.201Z,99.77
2019-06-15T01:38:48.186Z,99.21
2019-06-15T01:39:48.175Z,99.52
2019-06-15T01:40:48.163Z,99.62
2019-06-15T01:41:48.154Z,99.67
2019-06-15T01:42:48.158Z,99.27
2019-06-15T01:43:48.125Z,99.98
2019-06-15T01:44:48.114Z,99.77
2019-06-15T01:45:48.103Z,99.57
2019-06-15T01:46:48.090Z,99.98
2019-06-15T01:47:48.077Z,99.67
2019-06-15T01:48:48.083Z,99.57
2019-06-15T01:49:48.053Z,99.67
2019-06-15T01:50:48.039Z,99.67
2019-06-15T01:51:48.033Z,99.77
2019-06-15T01:52:48.019Z,99.98
2019-06-15T01:53:48.023Z,99.47
2019-06-15T01:54:48.016Z,99.47
2019-06-15T01:55:47.980Z,99.82
2019-06-15T01:56:47.973Z,99.82
2019-06-15T01:57:47.957Z,99.77
2019-06-15T01:58:47.946Z,99.98
2019-06-15T01:59:47.937Z,99.99
2019-06-15T02:00:47.943Z,99.99
2019-06-15T02:01:47.912Z,99.99
2019-06-15T02:02:47.896Z,99.99
2019-06-15T02:03:47.889Z,99.99
2019-06-15T02:04:47.880Z,99.99
2019-06-15T02:05:47.860Z,99.99
2019-06-15T02:06:47.869Z,99.99
2019-06-15T02:07:47.844Z,99.99
2019-06-15T02:08:47.826Z,99.99
2019-06-15T02:09:47.832Z,99.99
2019-06-15T02:10:47.800Z,99.99
2019-06-15T02:11:47.787Z,99.99
2019-06-15T02:12:47.798Z,99.99
2019-06-15T02:13:47.764Z,99.99
2019-06-15T02:14:47.756Z,99.99
2019-06-15T02:15:47.739Z,99.99
2019-06-15T02:16:47.741Z,99.99
2019-06-15T02:17:47.720Z,99.99
2019-06-15T02:18:47.727Z,99.99
2019-06-15T02:19:47.691Z,99.99
2019-06-15T02:20:47.680Z,99.99
2019-06-15T02:21:47.671Z,99.99
2019-06-15T02:22:47.665Z,99.99
2019-06-15T02:23:47.643Z,99.99
2019-06-15T02:24:47.648Z,99.99
2019-06-15T02:25:47.617Z,99.99
2019-06-15T02:26:47.611Z,99.99
2019-06-15T02:27:47.597Z,99.99
2019-06-15T02:28:47.589Z,99.99
2019-06-15T02:29:47.575Z,99.99
2019-06-15T02:30:47.584Z,99.99
2019-06-15T02:31:47.546Z,99.99
2019-06-15T02:32:47.536Z,99.99
2019-06-15T02:33:47.527Z,99.99
2019-06-15T02:34:47.512Z,99.99
2019-06-15T02:35:47.509Z,99.99
2019-06-15T02:36:47.507Z,99.99
2019-06-15T02:37:47.479Z,99.99
2019-06-15T02:38:47.476Z,99.99
2019-06-15T02:39:47.450Z,99.99
2019-06-15T02:40:47.444Z,99.99
2019-06-15T02:41:47.432Z,99.99
2019-06-15T02:42:47.440Z,99.99
2019-06-15T02:43:47.455Z,99.99
2019-06-15T02:44:47.388Z,99.99
2019-06-15T02:45:47.382Z,99.99
2019-06-15T02:46:47.367Z,99.99
2019-06-15T02:47:47.356Z,99.99
2019-06-15T02:48:47.364Z,99.99
2019-06-15T02:49:47.328Z,99.99
2019-06-15T02:50:47.319Z,99.99
2019-06-15T02:51:47.309Z,99.99
2019-06-15T02:52:47.293Z,99.99
2019-06-15T02:53:47.285Z,99.99
2019-06-15T02:54:47.287Z,99.99
2019-06-15T02:55:50.591Z,99.99
2019-06-15T02:56:47.249Z,99.99
2019-06-15T02:57:47.231Z,99.99
2019-06-15T02:58:47.227Z,99.99
2019-06-15T02:59:47.207Z,99.99
2019-06-15T03:00:47.221Z,99.99
2019-06-15T03:01:47.200Z,99.99
2019-06-15T03:02:47.170Z,99.99
2019-06-15T03:03:47.167Z,99.99
2019-06-15T03:04:47.155Z,99.99
2019-06-15T03:05:47.135Z,99.99
2019-06-15T03:06:47.155Z,99.99
2019-06-15T03:07:47.113Z,99.99
2019-06-15T03:08:47.102Z,99.99
2019-06-15T03:09:47.087Z,99.99
2019-06-15T03:10:47.075Z,99.99
2019-06-15T03:11:47.063Z,99.99
2019-06-15T03:12:47.076Z,99.99
2019-06-15T03:13:47.038Z,99.99
2019-06-15T03:14:47.028Z,99.99
2019-06-15T03:15:47.019Z,99.99
2019-06-15T03:16:47.003Z,99.99
2019-06-15T03:17:46.989Z,99.99
2019-06-15T03:18:46.996Z,99.99
2019-06-15T03:19:46.966Z,99.99
2019-06-15T03:20:46.968Z,99.99
2019-06-15T03:21:46.942Z,99.99
2019-06-15T03:22:46.936Z,99.99
2019-06-15T03:23:46.917Z,99.99
2019-06-15T03:24:46.923Z,99.99
2019-06-15T03:25:46.893Z,99.99
2019-06-15T03:26:46.879Z,99.99
2019-06-15T03:27:46.871Z,99.99
2019-06-15T03:28:46.859Z,99.99
2019-06-15T03:29:46.844Z,99.99
2019-06-15T03:30:46.855Z,99.99
2019-06-15T03:31:46.820Z,99.99
2019-06-15T03:32:46.816Z,99.99
2019-06-15T03:33:46.799Z,99.99
2019-06-15T03:34:46.783Z,99.99
2019-06-15T03:35:46.770Z,99.99
2019-06-15T03:36:46.783Z,99.99
2019-06-15T03:37:46.752Z,99.99
2019-06-15T03:38:46.772Z,99.99
2019-06-15T03:39:46.721Z,99.99
2019-06-15T03:40:46.708Z,99.99
2019-06-15T03:41:46.705Z,99.99
2019-06-15T03:42:46.706Z,99.99
2019-06-15T03:43:46.677Z,99.99
2019-06-15T03:44:46.662Z,99.99
2019-06-15T03:45:46.679Z,99.99
2019-06-15T03:46:46.641Z,99.99
2019-06-15T03:47:46.622Z,99.99
2019-06-15T03:48:46.637Z,99.99
2019-06-15T03:49:46.598Z,99.99
2019-06-15T03:50:46.588Z,99.99
2019-06-15T03:51:46.577Z,99.99
2019-06-15T03:52:46.574Z,99.99
2019-06-15T03:53:46.552Z,99.99
2019-06-15T03:54:46.562Z,99.99
2019-06-15T03:55:46.527Z,99.99
2019-06-15T03:56:46.515Z,99.99
2019-06-15T03:57:46.507Z,99.99
2019-06-15T03:58:46.491Z,99.99
2019-06-15T03:59:46.485Z,99.99
2019-06-15T04:00:46.495Z,99.99
2019-06-15T04:01:46.455Z,99.99
2019-06-15T04:02:46.451Z,99.99
2019-06-15T04:03:46.431Z,99.99
2019-06-15T04:04:46.441Z,99.99
2019-06-15T04:05:46.409Z,99.99
2019-06-15T04:06:46.432Z,99.99
2019-06-15T04:07:46.392Z,99.99
2019-06-15T04:08:46.373Z,99.99
2019-06-15T04:09:46.362Z,99.99
2019-06-15T04:10:46.351Z,99.99
2019-06-15T04:11:46.338Z,99.99
2019-06-15T04:12:46.353Z,99.99
2019-06-15T04:13:46.317Z,99.99
2019-06-15T04:14:46.302Z,99.99
2019-06-15T04:15:46.292Z,99.99
2019-06-15T04:16:46.280Z,99.99
2019-06-15T04:17:46.273Z,99.99
2019-06-15T04:18:46.275Z,99.99
2019-06-15T04:19:46.244Z,99.99
2019-06-15T04:20:46.232Z,99.99
2019-06-15T04:21:46.231Z,99.99
2019-06-15T04:22:46.223Z,99.99
2019-06-15T04:23:46.201Z,99.99
2019-06-15T04:24:46.205Z,99.99
2019-06-15T04:25:46.238Z,99.99
2019-06-15T04:26:46.164Z,99.99
2019-06-15T04:27:46.161Z,99.99
2019-06-15T04:28:46.138Z,99.99
2019-06-15T04:29:46.132Z,99.99
2019-06-15T04:30:46.145Z,99.99
2019-06-15T04:31:46.108Z,99.99
2019-06-15T04:32:46.098Z,99.79
2019-06-15T04:33:46.086Z,98.88
2019-06-15T04:34:46.069Z,99.48
2019-06-15T04:35:46.059Z,98.73
2019-06-15T04:36:46.071Z,98.33
2019-06-15T04:37:46.044Z,98.43
2019-06-15T04:38:46.027Z,97.82
2019-06-15T04:39:46.011Z,98.13
2019-06-15T04:40:46.005Z,98.02
2019-06-15T04:41:45.993Z,97.12
2019-06-15T04:42:45.997Z,97.32
2019-06-15T04:43:45.965Z,96.31
2019-06-15T04:44:45.955Z,96.41
2019-06-15T04:45:45.958Z,95.75
2019-06-15T04:46:45.930Z,95.55
2019-06-15T04:47:45.927Z,95.85
2019-06-15T04:48:45.934Z,96.25
2019-06-15T04:49:45.900Z,96.00
2019-06-15T04:50:45.892Z,96.00
2019-06-15T04:51:45.877Z,96.25
2019-06-15T04:52:45.868Z,96.66
2019-06-15T04:53:45.853Z,96.30
2019-06-15T04:54:45.860Z,96.56
2019-06-15T04:55:45.831Z,96.45
2019-06-15T04:56:51.089Z,96.45
2019-06-15T04:57:46.813Z,95.65
2019-06-15T04:58:45.796Z,95.65
2019-06-15T04:59:45.792Z,96.10
2019-06-15T05:00:45.793Z,95.95
2019-06-15T05:01:45.761Z,96.25
2019-06-15T05:02:45.752Z,96.01
2019-06-15T05:03:45.740Z,95.56
2019-06-15T05:04:45.728Z,94.91
2019-06-15T05:05:45.719Z,95.61
2019-06-15T05:06:45.734Z,94.31
2019-06-15T05:07:45.694Z,93.71
2019-06-15T05:08:45.681Z,92.96
2019-06-15T05:09:45.669Z,90.65
2019-06-15T05:10:45.661Z,90.11
2019-06-15T05:11:45.653Z,90.20
2019-06-15T05:12:45.653Z,89.56
2019-06-15T05:13:45.623Z,89.51
2019-06-15T05:14:45.611Z,90.17
2019-06-15T05:15:45.599Z,87.96
2019-06-15T05:16:45.593Z,88.17
2019-06-15T05:17:46.397Z,88.32
2019-06-15T05:18:45.588Z,87.26
2019-06-15T05:19:45.556Z,87.26
2019-06-15T05:20:45.544Z,88.31
2019-06-15T05:21:45.536Z,88.41
2019-06-15T05:22:45.522Z,88.35
2019-06-15T05:23:45.508Z,88.59
2019-06-15T05:24:45.524Z,89.70
2019-06-15T05:25:45.486Z,90.25
2019-06-15T05:26:45.482Z,90.39
2019-06-15T05:27:45.464Z,91.30
2019-06-15T05:28:45.452Z,92.00
2019-06-15T05:29:45.447Z,92.05
2019-06-15T05:30:45.456Z,92.25
2019-06-15T05:31:45.421Z,90.84
2019-06-15T05:32:45.421Z,91.38
2019-06-15T05:33:45.395Z,92.29
2019-06-15T05:34:45.388Z,92.23
2019-06-15T05:35:45.376Z,92.43
2019-06-15T05:36:45.382Z,93.04
2019-06-15T05:37:45.349Z,93.65
2019-06-15T05:38:45.340Z,92.83
2019-06-15T05:39:45.328Z,93.24
2019-06-15T05:40:45.362Z,93.60
2019-06-15T05:41:45.311Z,94.20
2019-06-15T05:42:45.316Z,93.40
2019-06-15T05:43:45.281Z,93.04
2019-06-15T05:44:45.275Z,92.94
2019-06-15T05:45:45.257Z,92.94
2019-06-15T05:46:45.251Z,92.94
2019-06-15T05:47:45.236Z,93.38
2019-06-15T05:48:45.255Z,93.49
2019-06-15T05:49:45.216Z,93.99
2019-06-15T05:50:45.201Z,94.34
2019-06-15T05:51:45.190Z,94.70
2019-06-15T05:52:45.179Z,94.70
2019-06-15T05:53:45.170Z,93.69
2019-06-15T05:54:45.181Z,94.19
2019-06-15T05:55:45.148Z,94.39
2019-06-15T05:56:45.142Z,94.39
2019-06-15T05:57:45.121Z,94.29
2019-06-15T05:58:45.112Z,93.99
2019-06-15T05:59:45.101Z,94.09
2019-06-15T06:00:45.163Z,93.99
2019-06-15T06:01:45.079Z,93.84
2019-06-15T06:02:45.068Z,94.59
2019-06-15T06:03:45.063Z,93.99
2019-06-15T06:04:45.052Z,93.79
2019-06-15T06:05:45.030Z,93.69
2019-06-15T06:06:45.088Z,93.63
2019-06-15T06:07:45.010Z,93.59
2019-06-15T06:08:44.997Z,93.53
2019-06-15T06:09:44.986Z,94.54
2019-06-15T06:10:44.972Z,93.79
2019-06-15T06:11:44.962Z,94.49
2019-06-15T06:12:44.986Z,93.99
2019-06-15T06:13:44.940Z,93.33
2019-06-15T06:14:44.929Z,93.43
2019-06-15T06:15:44.917Z,92.82
2019-06-15T06:16:44.907Z,93.73
2019-06-15T06:17:44.895Z,94.13
2019-06-15T06:18:44.908Z,94.64
2019-06-15T06:19:44.877Z,93.53
2019-06-15T06:20:44.860Z,93.93
2019-06-15T06:21:44.852Z,93.73
2019-06-15T06:22:44.839Z,94.04
2019-06-15T06:23:44.835Z,93.73
2019-06-15T06:24:44.838Z,93.23
2019-06-15T06:25:44.801Z,94.24
2019-06-15T06:26:44.801Z,93.84
2019-06-15T06:27:44.779Z,94.44
2019-06-15T06:28:56.556Z,93.59
2019-06-15T06:29:45.779Z,92.38
2019-06-15T06:30:44.745Z,92.58
2019-06-15T06:31:44.734Z,92.94
2019-06-15T06:32:44.726Z,93.04
2019-06-15T06:33:44.712Z,93.70
2019-06-15T06:34:44.699Z,91.38
2019-06-15T06:35:44.715Z,91.85
2019-06-15T06:36:44.679Z,91.80
2019-06-15T06:37:44.678Z,89.60
2019-06-15T06:38:44.660Z,87.55
2019-06-15T06:39:44.643Z,86.96
2019-06-15T06:40:44.655Z,87.62
2019-06-15T06:41:44.648Z,86.78
2019-06-15T06:42:44.616Z,84.63
2019-06-15T06:43:44.599Z,84.93
2019-06-15T06:44:44.597Z,82.63
2019-06-15T06:45:44.576Z,82.87
2019-06-15T06:46:44.564Z,83.17
2019-06-15T06:47:44.574Z,84.57
2019-06-15T06:48:44.573Z,85.17
2019-06-15T06:49:44.532Z,84.11
2019-06-15T06:50:44.521Z,85.02
2019-06-15T06:51:44.514Z,85.41
2019-06-15T06:52:44.500Z,86.32
2019-06-15T06:53:44.515Z,86.52
2019-06-15T06:54:44.483Z,86.02
2019-06-15T06:55:44.467Z,86.46
2019-06-15T06:56:44.460Z,86.76
2019-06-15T06:57:53.298Z,85.75
2019-06-15T06:58:45.453Z,86.36
2019-06-15T06:59:44.424Z,86.56
2019-06-15T07:00:44.418Z,86.96
2019-06-15T07:01:44.406Z,86.86
2019-06-15T07:02:44.390Z,87.26
2019-06-15T07:03:44.381Z,86.06
2019-06-15T07:04:44.390Z,86.10
2019-06-15T07:05:44.360Z,86.30
2019-06-15T07:06:44.350Z,87.71
2019-06-15T07:07:44.344Z,86.16
2019-06-15T07:08:44.343Z,83.19
2019-06-15T07:09:44.312Z,81.59
2019-06-15T07:10:44.323Z,81.68
2019-06-15T07:11:44.380Z,81.18
2019-06-15T07:12:44.282Z,80.38
2019-06-15T07:13:44.267Z,80.48
2019-06-15T07:14:44.258Z,80.52
2019-06-15T07:15:44.244Z,81.93
2019-06-15T07:16:44.257Z,82.79
2019-06-15T07:17:44.242Z,82.93
2019-06-15T07:18:44.210Z,82.67
2019-06-15T07:19:44.200Z,83.17
2019-06-15T07:20:44.190Z,82.51
2019-06-15T07:21:44.173Z,83.21
2019-06-15T07:22:44.188Z,83.61
2019-06-15T07:23:44.157Z,84.11
2019-06-15T07:24:44.206Z,83.61
2019-06-15T07:25:44.133Z,82.81
2019-06-15T07:26:44.116Z,81.40
2019-06-15T07:27:44.108Z,81.67
2019-06-15T07:28:44.118Z,81.76
2019-06-15T07:29:44.087Z,80.32
2019-06-15T07:30:44.071Z,80.98
2019-06-15T07:31:44.065Z,79.34
2019-06-15T07:32:44.048Z,78.63
2019-06-15T07:33:44.039Z,75.96
2019-06-15T07:34:44.051Z,74.66
2019-06-15T07:35:44.017Z,71.32
2019-06-15T07:36:44.009Z,69.76
2019-06-15T07:37:43.994Z,68.37
2019-06-15T07:38:43.983Z,64.70
2019-06-15T07:39:43.972Z,64.93
2019-06-15T07:40:43.984Z,63.28
2019-06-15T07:41:43.954Z,63.67
2019-06-15T07:42:43.939Z,65.88
2019-06-15T07:43:43.929Z,66.87
2019-06-15T07:44:43.920Z,67.63
2019-06-15T07:45:43.906Z,70.19
2019-06-15T07:46:43.922Z,69.86
2019-06-15T07:47:43.886Z,71.36
2019-06-15T07:48:43.878Z,72.32
2019-06-15T07:49:43.865Z,73.06
2019-06-15T07:50:43.854Z,73.25
2019-06-15T07:51:43.841Z,73.83
2019-06-15T07:52:43.865Z,75.46
2019-06-15T07:53:43.817Z,75.90
2019-06-15T07:54:43.808Z,74.54
2019-06-15T07:55:43.795Z,75.77
2019-06-15T07:56:43.795Z,75.69
2019-06-15T07:57:43.777Z,73.59
2019-06-15T07:58:43.782Z,74.63
2019-06-15T07:59:43.753Z,71.69
2019-06-15T08:00:43.741Z,66.87
2019-06-15T08:01:43.734Z,65.39
2019-06-15T08:02:43.718Z,64.86
2019-06-15T08:03:43.710Z,63.24
2019-06-15T08:04:43.721Z,61.10
2019-06-15T08:05:43.692Z,59.39
2019-06-15T08:06:43.683Z,58.20
2019-06-15T08:07:43.667Z,62.12
2019-06-15T08:08:43.653Z,62.24
2019-06-15T08:09:43.644Z,63.76
2019-06-15T08:10:43.657Z,65.18
2019-06-15T08:11:45.846Z,64.89
2019-06-15T08:12:43.615Z,64.52
2019-06-15T08:13:43.605Z,64.42
2019-06-15T08:14:43.590Z,65.71
2019-06-15T08:15:43.582Z,65.31
2019-06-15T08:16:43.594Z,67.00
2019-06-15T08:17:45.715Z,65.98
2019-06-15T08:18:43.552Z,65.28
2019-06-15T08:19:43.539Z,66.74
2019-06-15T08:20:43.526Z,66.44
2019-06-15T08:21:43.519Z,67.27
2019-06-15T08:22:43.528Z,67.53
2019-06-15T08:23:43.499Z,69.76
2019-06-15T08:24:43.497Z,69.69
2019-06-15T08:25:43.473Z,70.03
2019-06-15T08:26:43.463Z,71.22
2019-06-15T08:27:43.479Z,71.46
2019-06-15T08:28:43.487Z,72.26
2019-06-15T08:29:43.432Z,71.19
2019-06-15T08:30:43.419Z,68.60
2019-06-15T08:31:43.414Z,69.09
2019-06-15T08:32:43.419Z,67.17
2019-06-15T08:33:43.390Z,68.33
2019-06-15T08:34:43.409Z,65.71
2019-06-15T08:35:43.367Z,68.43
2019-06-15T08:36:43.392Z,67.47
2019-06-15T08:37:43.345Z,68.13
2019-06-15T08:38:43.331Z,70.39
2019-06-15T08:39:43.366Z,71.03
2019-06-15T08:40:43.336Z,72.06
2019-06-15T08:41:43.297Z,72.36
2019-06-15T08:42:43.288Z,72.99
2019-06-15T08:43:43.285Z,73.59
2019-06-15T08:44:43.265Z,73.29
2019-06-15T08:45:43.255Z,72.79
2019-06-15T08:46:43.272Z,72.69
2019-06-15T08:47:43.243Z,70.89
2019-06-15T08:48:43.226Z,72.09
2019-06-15T08:49:43.212Z,71.99
2019-06-15T08:50:43.199Z,72.13
2019-06-15T08:51:43.193Z,72.92
2019-06-15T08:52:43.202Z,73.56
2019-06-15T08:53:43.169Z,72.76
2019-06-15T08:54:43.157Z,72.80
2019-06-15T08:55:43.148Z,72.69
2019-06-15T08:56:43.149Z,74.03
2019-06-15T08:57:43.122Z,73.03
2019-06-15T08:58:54.845Z,73.67
2019-06-15T08:59:44.108Z,74.87
2019-06-15T09:00:43.090Z,72.86
2019-06-15T09:01:43.085Z,73.16
2019-06-15T09:02:43.068Z,73.90
2019-06-15T09:03:43.060Z,73.53
2019-06-15T09:04:43.071Z,69.82
2019-06-15T09:05:43.041Z,66.63
2019-06-15T09:06:43.026Z,64.81
2019-06-15T09:07:43.017Z,62.23
2019-06-15T09:08:43.006Z,60.28
2019-06-15T09:09:42.995Z,57.38
2019-06-15T09:10:43.007Z,57.85
2019-06-15T09:11:43.025Z,55.94
2019-06-15T09:12:42.973Z,56.26
2019-06-15T09:13:42.952Z,57.20
2019-06-15T09:14:42.943Z,55.96
2019-06-15T09:15:42.929Z,53.80
2019-06-15T09:16:42.944Z,52.49
2019-06-15T09:17:42.911Z,54.47
2019-06-15T09:18:42.898Z,54.30
2019-06-15T09:19:42.891Z,53.31
2019-06-15T09:20:42.877Z,53.90
2019-06-15T09:21:42.866Z,52.91
2019-06-15T09:22:42.876Z,53.55
2019-06-15T09:23:42.851Z,52.83
2019-06-15T09:24:42.841Z,50.56
2019-06-15T09:25:42.834Z,51.23
2019-06-15T09:26:42.820Z,50.36
2019-06-15T09:27:42.821Z,50.31
2019-06-15T09:28:42.817Z,50.19
2019-06-15T09:29:42.788Z,50.07
2019-06-15T09:30:42.782Z,48.28
2019-06-15T09:31:42.770Z,48.98
2019-06-15T09:32:42.760Z,51.35
2019-06-15T09:33:42.751Z,49.89
2019-06-15T09:34:42.782Z,49.89
2019-06-15T09:35:42.735Z,52.66
2019-06-15T09:36:42.720Z,53.28
2019-06-15T09:37:42.720Z,55.94
2019-06-15T09:38:42.699Z,57.86
2019-06-15T09:39:42.695Z,55.89
2019-06-15T09:40:42.710Z,57.49
2019-06-15T09:41:42.673Z,56.54
2019-06-15T09:42:42.662Z,55.94
2019-06-15T09:43:42.649Z,54.22
2019-06-15T09:44:42.647Z,53.28
2019-06-15T09:45:42.636Z,52.02
2019-06-15T09:46:42.656Z,52.98
2019-06-15T09:47:42.612Z,51.23
2019-06-15T09:48:42.603Z,52.01
2019-06-15T09:49:42.596Z,50.24
2019-06-15T09:50:42.584Z,50.21
2019-06-15T09:51:42.588Z,49.49
2019-06-15T09:52:42.613Z,50.81
2019-06-15T09:53:42.566Z,49.42
2019-06-15T09:54:42.549Z,51.03
2019-06-15T09:55:42.540Z,50.46
2019-06-15T09:56:42.531Z,50.58
2019-06-15T09:57:42.520Z,50.13
2019-06-15T09:58:42.540Z,51.99
2019-06-15T09:59:42.499Z,50.88
2019-06-15T10:00:42.536Z,49.77
2019-06-15T10:01:42.482Z,48.49
2019-06-15T10:02:42.482Z,49.20
2019-06-15T10:03:42.464Z,48.71
2019-06-15T10:04:42.481Z,47.81
2019-06-15T10:05:42.463Z,46.85
2019-06-15T10:06:42.439Z,49.13
2019-06-15T10:07:42.442Z,47.66
2019-06-15T10:08:42.467Z,48.33
2019-06-15T10:09:42.415Z,51.20
2019-06-15T10:10:42.435Z,48.49
2019-06-15T10:11:42.398Z,49.05
2019-06-15T10:12:42.414Z,47.60
2019-06-15T10:13:42.377Z,47.89
2019-06-15T10:14:42.376Z,48.83
2019-06-15T10:15:42.368Z,47.54
2019-06-15T10:16:42.375Z,48.14
2019-06-15T10:17:42.344Z,48.98
2019-06-15T10:18:42.340Z,46.91
2019-06-15T10:19:42.331Z,46.93
2019-06-15T10:20:42.318Z,48.75
2019-06-15T10:21:42.313Z,48.95
2019-06-15T10:22:42.328Z,50.34
2019-06-15T10:23:42.291Z,50.11
2019-06-15T10:24:42.285Z,49.22
2019-06-15T10:25:42.272Z,51.82
2019-06-15T10:26:42.265Z,53.90
2019-06-15T10:27:42.267Z,52.78
2019-06-15T10:28:42.266Z,50.85
2019-06-15T10:29:42.609Z,49.20
2019-06-15T10:30:42.228Z,48.09
2019-06-15T10:31:42.221Z,45.28
2019-06-15T10:32:42.206Z,48.03
2019-06-15T10:33:42.230Z,47.15
2019-06-15T10:34:42.215Z,47.89
2019-06-15T10:35:42.213Z,49.69
2019-06-15T10:36:42.174Z,48.63
2019-06-15T10:37:42.158Z,49.22
2019-06-15T10:38:42.152Z,47.47
2019-06-15T10:39:42.141Z,47.13
2019-06-15T10:40:42.153Z,47.17
2019-06-15T10:41:42.124Z,49.52
2019-06-15T10:42:42.160Z,49.66
2019-06-15T10:43:42.107Z,50.06
2019-06-15T10:44:42.099Z,49.69
2019-06-15T10:45:42.082Z,49.66
2019-06-15T10:46:42.096Z,47.93
2019-06-15T10:47:42.068Z,48.60
2019-06-15T10:48:42.060Z,48.50
2019-06-15T10:49:42.044Z,48.42
2019-06-15T10:50:42.035Z,49.86
2019-06-15T10:51:42.028Z,52.47
2019-06-15T10:52:42.033Z,52.91
2019-06-15T10:53:42.007Z,53.04
2019-06-15T10:54:41.994Z,53.53
2019-06-15T10:55:41.989Z,53.78
2019-06-15T10:56:41.972Z,54.58
2019-06-15T10:57:41.983Z,53.06
2019-06-15T10:58:41.974Z,53.66
2019-06-15T10:59:56.132Z,52.84
2019-06-15T11:00:42.932Z,52.29
2019-06-15T11:01:41.923Z,51.28
2019-06-15T11:02:41.920Z,51.05
2019-06-15T11:03:41.930Z,50.83
2019-06-15T11:04:41.918Z,50.81
2019-06-15T11:05:41.881Z,50.11
2019-06-15T11:06:41.871Z,51.15
2019-06-15T11:07:41.861Z,50.43
2019-06-15T11:08:41.852Z,48.94
2019-06-15T11:09:41.838Z,48.65
2019-06-15T11:10:41.864Z,48.85
2019-06-15T11:11:41.822Z,48.47
2019-06-15T11:12:46.475Z,48.42
2019-06-15T11:13:42.802Z,50.43
2019-06-15T11:14:41.792Z,50.11
2019-06-15T11:15:41.778Z,49.11
2019-06-15T11:16:41.792Z,50.38
2019-06-15T11:17:41.760Z,49.74
2019-06-15T11:18:41.749Z,48.47
2019-06-15T11:19:41.739Z,47.71
2019-06-15T11:20:41.729Z,50.13
2019-06-15T11:21:41.717Z,51.00
2019-06-15T11:22:41.833Z,50.56
2019-06-15T11:23:41.696Z,49.34
2019-06-15T11:24:41.688Z,49.34
2019-06-15T11:25:41.677Z,48.23
2019-06-15T11:26:42.152Z,47.86
2019-06-15T11:27:41.658Z,48.31
2019-06-15T11:28:41.673Z,46.63
2019-06-15T11:29:41.638Z,46.48
2019-06-15T11:30:41.633Z,48.35
2019-06-15T11:31:41.623Z,49.51
2019-06-15T11:32:41.606Z,50.13
2019-06-15T11:33:41.598Z,51.32
2019-06-15T11:34:41.614Z,51.72
2019-06-15T11:35:41.576Z,50.63
2019-06-15T11:36:41.568Z,52.94
2019-06-15T11:37:41.557Z,53.04
2019-06-15T11:38:41.549Z,52.42
2019-06-15T11:39:41.551Z,51.72
2019-06-15T11:40:41.550Z,52.61
2019-06-15T11:41:41.520Z,50.68
2019-06-15T11:42:41.508Z,51.20
2019-06-15T11:43:41.497Z,52.26
2019-06-15T11:44:41.482Z,50.80
2019-06-15T11:45:41.474Z,52.09
2019-06-15T11:46:41.552Z,52.81
2019-06-15T11:47:41.454Z,53.61
2019-06-15T11:48:41.449Z,53.64
2019-06-15T11:49:41.439Z,53.74
2019-06-15T11:50:41.418Z,53.36
2019-06-15T11:51:41.410Z,55.78
2019-06-15T11:52:41.422Z,55.31
2019-06-15T11:53:41.390Z,55.91
2019-06-15T11:54:41.375Z,54.71
2019-06-15T11:55:41.366Z,55.80
2019-06-15T11:56:41.358Z,56.70
2019-06-15T11:57:41.345Z,56.23
2019-06-15T11:58:41.360Z,56.63
2019-06-15T11:59:41.324Z,56.16
2019-06-15T12:00:41.320Z,58.15
2019-06-15T12:01:41.303Z,58.06
2019-06-15T12:02:41.299Z,58.08
2019-06-15T12:03:41.287Z,57.48
2019-06-15T12:04:41.298Z,57.18
2019-06-15T12:05:41.273Z,58.55
2019-06-15T12:06:41.271Z,57.46
2019-06-15T12:07:41.253Z,57.65
2019-06-15T12:08:41.233Z,58.15
2019-06-15T12:09:41.215Z,58.85
2019-06-15T12:10:41.224Z,57.56
2019-06-15T12:11:41.196Z,58.15
2019-06-15T12:12:41.181Z,57.86
2019-06-15T12:13:41.182Z,57.73
2019-06-15T12:14:41.165Z,56.63
2019-06-15T12:15:41.152Z,56.40
2019-06-15T12:16:41.158Z,57.50
2019-06-15T12:17:41.127Z,56.81
2019-06-15T12:18:41.135Z,57.30
2019-06-15T12:19:41.105Z,57.90
2019-06-15T12:20:41.094Z,56.70
2019-06-15T12:21:41.091Z,56.21
2019-06-15T12:22:41.103Z,57.30
2019-06-15T12:23:41.062Z,57.97
2019-06-15T12:24:41.052Z,57.28
2019-06-15T12:25:41.048Z,56.21
2019-06-15T12:26:41.029Z,57.80
2019-06-15T12:27:41.021Z,57.73
2019-06-15T12:28:41.043Z,58.33
2019-06-15T12:29:40.996Z,58.03
2019-06-15T12:30:47.323Z,57.73
2019-06-15T12:31:41.981Z,59.62
2019-06-15T12:32:40.969Z,58.40
2019-06-15T12:33:40.953Z,58.57
2019-06-15T12:34:40.968Z,56.45
2019-06-15T12:35:40.929Z,56.52
2019-06-15T12:36:40.919Z,56.32
2019-06-15T12:37:40.917Z,55.40
2019-06-15T12:38:40.903Z,55.08
2019-06-15T12:39:42.097Z,53.98
2019-06-15T12:40:40.895Z,55.60
2019-06-15T12:41:40.871Z,54.21
2019-06-15T12:42:40.854Z,55.60
2019-06-15T12:43:40.842Z,55.53
2019-06-15T12:44:40.837Z,55.43
2019-06-15T12:45:40.830Z,56.92
2019-06-15T12:46:40.871Z,56.25
2019-06-15T12:47:40.805Z,56.85
2019-06-15T12:48:40.795Z,56.15
2019-06-15T12:49:40.778Z,56.25
2019-06-15T12:50:40.770Z,56.45
2019-06-15T12:51:41.002Z,55.95
2019-06-15T12:52:40.773Z,57.22